createdAt,value
2022-11-04T00:01:33.021Z,57.63
2022-11-04T00:06:35.700Z,57.26
2022-11-04T00:11:56.115Z,57.74
2022-11-04T00:17:16.994Z,58.03
2022-11-04T00:22:37.709Z,57.65
2022-11-04T00:27:58.028Z,57.62
2022-11-04T00:33:18.245Z,58.21
2022-11-04T00:38:20.196Z,58.15
2022-11-04T00:43:22.120Z,58.09
2022-11-04T00:48:24.020Z,58.01
2022-11-04T00:53:25.907Z,58.00
2022-11-04T00:58:28.744Z,58.35
2022-11-04T01:03:30.821Z,58.16
2022-11-04T01:08:32.875Z,57.76
2022-11-04T01:13:34.861Z,58.01
2022-11-04T01:18:37.045Z,58.46
2022-11-04T01:23:39.265Z,58.01
2022-11-04T01:28:41.290Z,57.61
2022-11-04T01:33:43.257Z,57.61
2022-11-04T01:38:45.930Z,57.77
2022-11-04T01:43:53.724Z,57.58
2022-11-04T01:48:59.634Z,57.58
2022-11-04T01:54:02.348Z,57.56
2022-11-04T01:59:07.966Z,57.60
2022-11-04T02:04:25.987Z,57.60
2022-11-04T02:09:28.889Z,57.18
2022-11-04T02:14:31.592Z,57.79
2022-11-04T02:19:36.473Z,57.80
2022-11-04T02:24:53.715Z,57.86
2022-11-04T02:29:58.296Z,57.04
2022-11-04T02:35:05.479Z,57.03
2022-11-04T02:40:10.554Z,57.53
2022-11-04T02:45:21.735Z,57.19
2022-11-04T02:50:29.756Z,57.52
2022-11-04T02:55:54.704Z,56.91
2022-11-04T03:00:58.997Z,57.14
2022-11-04T03:06:01.953Z,57.30
2022-11-04T03:11:06.692Z,57.15
2022-11-04T03:16:12.890Z,57.01
2022-11-04T03:21:15.476Z,56.93
2022-11-04T03:26:20.421Z,56.52
2022-11-04T03:31:26.215Z,56.76
2022-11-04T03:36:29.764Z,57.35
2022-11-04T03:41:36.895Z,56.53
2022-11-04T03:46:39.036Z,56.85
2022-11-04T03:51:40.940Z,56.57
2022-11-04T03:56:51.834Z,57.18
2022-11-04T04:02:03.923Z,56.28
2022-11-04T04:07:18.023Z,56.96
2022-11-04T04:12:30.524Z,56.32
2022-11-04T04:17:43.129Z,56.95
2022-11-04T04:23:01.964Z,56.41
2022-11-04T04:28:04.621Z,56.69
2022-11-04T04:33:11.687Z,56.82
2022-11-04T04:38:42.315Z,56.66
2022-11-04T04:44:02.605Z,56.78
2022-11-04T04:49:05.846Z,56.77
2022-11-04T04:54:07.945Z,56.37
2022-11-04T04:59:09.827Z,56.77
2022-11-04T05:04:11.743Z,56.40
2022-11-04T05:09:13.611Z,56.26
2022-11-04T05:14:15.508Z,56.27
2022-11-04T05:19:17.431Z,56.46
2022-11-04T05:24:19.359Z,56.37
2022-11-04T05:29:21.329Z,55.73
2022-11-04T05:34:23.434Z,56.39
2022-11-04T05:39:25.300Z,56.14
2022-11-04T05:44:27.194Z,55.52
2022-11-04T05:49:29.041Z,55.95
2022-11-04T05:54:30.924Z,56.06
2022-11-04T05:59:32.996Z,55.63
2022-11-04T06:04:34.869Z,55.71
2022-11-04T06:09:39.762Z,55.79
2022-11-04T06:14:42.224Z,56.56
2022-11-04T06:19:44.263Z,55.80
2022-11-04T06:24:46.308Z,56.04
2022-11-04T06:29:48.273Z,56.37
2022-11-04T06:34:50.202Z,56.00
2022-11-04T06:39:52.100Z,56.25
2022-11-04T06:44:53.977Z,56.34
2022-11-04T06:49:55.889Z,56.45
2022-11-04T06:54:58.104Z,56.46
2022-11-04T07:00:00.124Z,56.51
2022-11-04T07:05:02.141Z,56.40
2022-11-04T07:10:05.280Z,56.06
2022-11-04T07:15:07.617Z,56.53
2022-11-04T07:20:13.200Z,56.24
2022-11-04T07:25:15.171Z,56.45
2022-11-04T07:30:17.154Z,56.73
2022-11-04T07:35:19.142Z,56.86
2022-11-04T07:40:21.142Z,56.77
2022-11-04T07:45:23.074Z,56.73
2022-11-04T07:50:25.142Z,57.25
2022-11-04T07:55:27.253Z,57.36
2022-11-04T08:00:29.197Z,57.10
2022-11-04T08:05:31.173Z,56.74
2022-11-04T08:10:33.538Z,56.63
2022-11-04T08:15:36.208Z,56.43
2022-11-04T08:20:38.579Z,56.58
2022-11-04T08:25:40.565Z,56.89
2022-11-04T08:30:42.811Z,57.38
2022-11-04T08:35:44.797Z,57.13
2022-11-04T08:40:46.820Z,56.78
2022-11-04T08:45:48.863Z,56.70
2022-11-04T08:50:52.837Z,56.61
2022-11-04T08:55:55.280Z,56.92
2022-11-04T09:00:58.031Z,56.50
2022-11-04T09:06:00.241Z,56.18
2022-11-04T09:11:02.180Z,56.51
2022-11-04T09:16:04.883Z,56.35
2022-11-04T09:21:07.850Z,55.87
2022-11-04T09:26:14.387Z,56.25
2022-11-04T09:31:17.760Z,56.28
2022-11-04T09:36:19.752Z,56.28
2022-11-04T09:41:24.686Z,56.26
2022-11-04T09:46:27.232Z,56.34
2022-11-04T09:56:53.221Z,56.61
2022-11-04T10:01:55.240Z,56.15
2022-11-04T10:06:57.184Z,56.32
2022-11-04T10:12:14.149Z,56.24
2022-11-04T10:17:33.533Z,56.43
2022-11-04T10:22:41.306Z,56.53
2022-11-04T10:27:44.844Z,56.19
2022-11-04T10:32:53.075Z,56.76
2022-11-04T10:37:55.688Z,56.67
2022-11-04T10:43:00.047Z,56.91
2022-11-04T10:48:08.798Z,56.88
2022-11-04T10:53:20.224Z,56.46
2022-11-04T10:58:24.739Z,56.32
2022-11-04T11:03:28.837Z,55.66
2022-11-04T11:08:33.119Z,55.21
2022-11-04T11:13:39.831Z,55.19
2022-11-04T11:18:42.223Z,55.16
2022-11-04T11:23:47.481Z,55.42
2022-11-04T11:28:57.497Z,55.45
2022-11-04T11:34:03.353Z,55.65
2022-11-04T11:39:11.234Z,55.73
2022-11-04T11:44:22.024Z,55.68
2022-11-04T11:49:35.975Z,55.92
2022-11-04T11:54:39.261Z,55.78
2022-11-04T12:11:20.470Z,56.36
2022-11-04T12:16:22.379Z,55.95
2022-11-04T12:21:33.354Z,55.83
2022-11-04T12:26:38.104Z,56.38
2022-11-04T12:31:49.145Z,56.43
2022-11-04T12:37:15.622Z,55.97
2022-11-04T12:42:29.705Z,56.15
2022-11-04T12:47:44.863Z,55.92
2022-11-04T12:53:05.206Z,56.28
2022-11-04T12:58:07.111Z,56.36
2022-11-04T13:03:18.121Z,56.41
2022-11-04T13:08:31.945Z,56.32
2022-11-04T13:13:36.850Z,56.47
2022-11-04T13:18:40.493Z,55.98
2022-11-04T13:23:42.425Z,56.15
2022-11-04T13:28:46.845Z,56.47
2022-11-04T13:33:58.358Z,56.63
2022-11-04T13:39:02.220Z,56.53
2022-11-04T13:44:11.031Z,56.39
2022-11-04T13:49:13.570Z,56.91
2022-11-04T13:54:29.548Z,56.66
2022-11-04T13:59:32.145Z,56.92
2022-11-04T14:04:34.142Z,57.23
2022-11-04T14:09:42.118Z,57.17
2022-11-04T14:14:48.830Z,57.49
2022-11-04T14:19:56.765Z,57.56
2022-11-04T14:24:59.632Z,57.31
2022-11-04T14:30:01.931Z,56.99
2022-11-04T14:35:06.168Z,57.43
2022-11-04T14:40:24.943Z,57.01
2022-11-04T14:45:29.628Z,57.13
2022-11-04T14:50:31.585Z,57.24
2022-11-04T14:55:33.495Z,57.21
2022-11-04T15:00:37.477Z,57.03
2022-11-04T15:05:40.489Z,57.23
2022-11-04T15:10:42.494Z,57.35
2022-11-04T15:15:45.498Z,57.24
2022-11-04T15:20:49.376Z,57.72
2022-11-04T15:25:51.503Z,57.52
2022-11-04T15:31:03.720Z,57.91
2022-11-04T15:36:06.610Z,57.94
2022-11-04T15:41:27.600Z,57.80
2022-11-04T15:46:30.997Z,58.06
2022-11-04T15:51:37.782Z,57.56
2022-11-04T15:56:42.589Z,57.51
2022-11-04T16:01:45.983Z,57.46
2022-11-04T16:07:02.580Z,57.59
2022-11-04T16:12:06.448Z,57.80
2022-11-04T16:17:10.369Z,57.95
2022-11-04T16:22:17.924Z,58.13
2022-11-04T16:27:21.596Z,57.80
2022-11-04T16:32:31.269Z,57.67
2022-11-04T16:37:33.261Z,58.08
2022-11-04T16:42:35.234Z,57.81
2022-11-04T16:47:40.593Z,57.53
2022-11-04T16:52:44.447Z,57.51
2022-11-04T16:57:46.804Z,57.46
2022-11-04T17:02:49.723Z,57.54
2022-11-04T17:07:54.509Z,57.59
2022-11-04T17:12:57.315Z,57.53
2022-11-04T17:17:59.245Z,57.36
2022-11-04T17:23:01.245Z,57.86
2022-11-04T17:28:03.100Z,57.20
2022-11-04T17:33:06.728Z,57.59
2022-11-04T17:38:10.671Z,57.45
2022-11-04T17:43:30.900Z,57.33
2022-11-04T17:48:32.893Z,57.36
2022-11-04T17:53:34.836Z,57.69
2022-11-04T17:58:37.145Z,57.37
2022-11-04T18:03:39.133Z,57.62
2022-11-04T18:08:43.569Z,57.30
2022-11-04T18:13:45.498Z,57.22
2022-11-04T18:18:47.494Z,57.15
2022-11-04T18:23:49.371Z,57.29
2022-11-04T18:28:51.752Z,57.24
2022-11-04T18:33:53.840Z,57.26
2022-11-04T18:38:55.813Z,57.38
2022-11-04T18:43:57.836Z,57.32
2022-11-04T18:48:59.781Z,57.03
2022-11-04T18:54:03.952Z,57.67
2022-11-04T18:59:09.000Z,56.94
2022-11-04T19:04:11.322Z,57.27
2022-11-04T19:14:38.610Z,57.72
2022-11-04T19:19:41.300Z,57.33
2022-11-04T19:24:43.415Z,57.85
2022-11-04T19:29:45.309Z,57.36
2022-11-04T19:34:47.346Z,57.11
2022-11-04T19:39:49.888Z,57.45
2022-11-04T19:44:53.086Z,57.22
2022-11-04T19:49:55.816Z,57.35
2022-11-04T19:54:57.833Z,56.90
2022-11-04T20:00:00.870Z,57.43
2022-11-04T20:05:13.635Z,57.28
2022-11-04T20:10:15.627Z,57.10
2022-11-04T20:15:17.516Z,57.60
2022-11-04T20:20:19.390Z,57.31
2022-11-04T20:25:21.361Z,57.38
2022-11-04T20:30:23.351Z,57.19
2022-11-04T20:35:25.913Z,57.17
2022-11-04T20:40:28.011Z,56.88
2022-11-04T20:45:30.167Z,57.10
2022-11-04T20:50:32.104Z,57.08
2022-11-04T20:55:34.669Z,57.13
2022-11-04T21:00:36.940Z,57.43
2022-11-04T21:05:39.013Z,57.07
2022-11-04T21:10:40.942Z,56.98
2022-11-04T21:15:44.246Z,56.80
2022-11-04T21:20:46.212Z,57.09
2022-11-04T21:25:49.997Z,57.00
2022-11-04T21:30:53.235Z,57.45
2022-11-04T21:35:55.160Z,57.20
2022-11-04T21:41:01.046Z,57.04
2022-11-04T21:46:07.901Z,57.42
2022-11-04T21:51:11.286Z,57.21
2022-11-04T21:56:15.154Z,57.24
2022-11-04T22:01:18.761Z,57.18
2022-11-04T22:06:20.891Z,57.09
2022-11-04T22:11:30.259Z,56.86
2022-11-04T22:16:35.208Z,56.54
2022-11-04T22:21:39.365Z,56.73
2022-11-04T22:26:41.698Z,56.75
2022-11-04T22:31:44.758Z,56.53
2022-11-04T22:36:46.654Z,56.77
2022-11-04T22:41:50.020Z,56.14
2022-11-04T22:46:52.058Z,56.49
2022-11-04T22:51:54.009Z,56.19
2022-11-04T22:56:55.972Z,56.10
2022-11-04T23:01:58.121Z,56.29
2022-11-04T23:07:00.209Z,56.21
2022-11-04T23:12:20.516Z,55.68
2022-11-04T23:17:41.516Z,56.17
2022-11-04T23:23:01.747Z,55.62
2022-11-04T23:28:36.016Z,56.19
2022-11-04T23:33:56.263Z,55.91
2022-11-04T23:38:58.109Z,55.94
2022-11-04T23:43:59.952Z,55.95
2022-11-04T23:49:27.708Z,55.34
2022-11-04T23:54:48.407Z,55.63
